Time;durP1;ratioP1;P1;durP2;ratioP2;P2;SDS_P1;SDS_P2;PMS_P1;PMS_P2;Temp;Humidity;BMP_temperature;BMP_pressure;BME280_temperature;BME280_humidity;BME280_pressure;Samples;Min_cycle;Max_cycle;Signal;HPM_P1;HPM_P2
2024/01/29 00:00:41;;;;;;;;;;;;;;;;;;4915226;29;5046;-64
2024/01/29 00:03:06;;;;;;;;;;;;;;;;;;4931653;29;3748;-63
2024/01/29 00:05:31;;;;;;;;;;;;;;;;;;4928640;29;4757;-63
2024/01/29 00:07:57;;;;;;;;;;;;;;;;;;4932605;29;5042;-64
2024/01/29 00:10:22;;;;;;;;;;;;;;;;;;4926183;29;5078;-63
2024/01/29 00:12:47;;;;;;;;;;;;;;;;;;4924365;29;5098;-64
2024/01/29 00:15:13;;;;;;;;;;;;;;;;;;4930240;29;3405;-64
2024/01/29 00:17:38;;;;;;;;;;;;;;;;;;4921420;29;4534;-64
2024/01/29 00:20:04;;;;;;;;;;;;;;;;;;4929190;29;5125;-64
2024/01/29 00:22:29;;;;;;;;;;;;;;;;;;4909807;29;5343;-64
2024/01/29 00:24:54;;;;;;;;;;;;;;;;;;4928043;29;5181;-63
2024/01/29 00:27:20;;;;;;;;;;;;;;;;;;4928999;29;4027;-64
2024/01/29 00:29:45;;;;;;;;;;;;;;;;;;4930930;29;4542;-63
2024/01/29 00:32:10;;;;;;;;;;;;;;;;;;4931224;29;5837;-63
2024/01/29 00:34:36;;;;;;;;;;;;;;;;;;4929301;29;4524;-63
2024/01/29 00:37:01;;;;;;;;;;;;;;;;;;4930025;29;5019;-64
2024/01/29 00:39:27;;;;;;;;;;;;;;;;;;4929262;29;3534;-64
2024/01/29 00:41:52;;;;;;;;;;;;;;;;;;4906655;29;4854;-63
2024/01/29 00:44:19;;;;;;;;;;;;;;;;;;4908356;29;4751;-64
2024/01/29 00:46:45;;;;;;;;;;;;;;;;;;4930157;29;5069;-64
2024/01/29 00:49:10;;;;;;;;;;;;;;;;;;4928648;29;5302;-64
2024/01/29 00:51:35;;;;;;;;;;;;;;;;;;4929046;29;2259;-64
2024/01/29 00:54:01;;;;;;;;;;;;;;;;;;4927577;29;5088;-64
2024/01/29 00:56:26;;;;;;;;;;;;;;;;;;4927321;28;4625;-63
2024/01/29 00:58:52;;;;;;;;;;;;;;;;;;4929241;29;4485;-64
2024/01/29 01:01:17;;;;;;;;;;;;;;;;;;4924834;29;4558;-64
2024/01/29 01:03:42;;;;;;;;;;;;;;;;;;4927855;29;5234;-63
2024/01/29 01:06:09;;;;;;;;;;;;;;;;;;4925418;29;3500;-65
2024/01/29 01:08:34;;;;;;;;;;;;;;;;;;4924635;29;4506;-63
2024/01/29 01:10:59;;;;;;;;;;;;;;;;;;4924501;29;5162;-63
2024/01/29 01:13:25;;;;;;;;;;;;;;;;;;4924736;29;5357;-64
2024/01/29 01:15:50;;;;;;;;;;;;;;;;;;4926629;29;4868;-64
2024/01/29 01:18:15;;;;;;;;;;;;;;;;;;4927281;29;3407;-64
2024/01/29 01:20:41;;;;;;;;;;;;;;;;;;4923544;29;5243;-63
2024/01/29 01:23:06;;;;;;;;;;;;;;;;;;4928817;29;5258;-64
2024/01/29 01:25:31;;;;;;;;;;;;;;;;;;4924353;29;4833;-63
2024/01/29 01:27:57;;;;;;;;;;;;;;;;;;4930254;29;5068;-63
2024/01/29 01:30:22;;;;;;;;;;;;;;;;;;4909038;29;3611;-63
2024/01/29 01:32:48;;;;;;;;;;;;;;;;;;4926456;29;4553;-63
2024/01/29 01:35:13;;;;;;;;;;;;;;;;;;4929112;29;5090;-63
2024/01/29 01:37:39;;;;;;;;;;;;;;;;;;4929636;29;4784;-63
2024/01/29 01:40:04;;;;;;;;;;;;;;;;;;4929673;29;4723;-63
2024/01/29 01:42:30;;;;;;;;;;;;;;;;;;4931816;29;1198;-63
2024/01/29 01:44:55;;;;;;;;;;;;;;;;;;4912602;29;5253;-63
2024/01/29 01:47:20;;;;;;;;;;;;;;;;;;4930001;29;5240;-63
2024/01/29 01:49:46;;;;;;;;;;;;;;;;;;4925771;29;4600;-64
2024/01/29 01:52:11;;;;;;;;;;;;;;;;;;4929060;29;5055;-63
2024/01/29 01:54:36;;;;;;;;;;;;;;;;;;4926081;28;5010;-57
2024/01/29 01:57:02;;;;;;;;;;;;;;;;;;4899939;29;3541;-64
2024/01/29 01:59:27;;;;;;;;;;;;;;;;;;4906655;29;4536;-63
2024/01/29 02:01:53;;;;;;;;;;;;;;;;;;4901193;29;5327;-64
2024/01/29 02:04:18;;;;;;;;;;;;;;;;;;4926944;29;5135;-64
2024/01/29 02:06:43;;;;;;;;;;;;;;;;;;4923861;29;4519;-64
2024/01/29 02:09:09;;;;;;;;;;;;;;;;;;4909742;29;3489;-64
2024/01/29 02:11:34;;;;;;;;;;;;;;;;;;4907138;29;5025;-63
2024/01/29 02:13:59;;;;;;;;;;;;;;;;;;4925688;29;5489;-63
2024/01/29 02:16:25;;;;;;;;;;;;;;;;;;4927086;29;5560;-64
2024/01/29 02:18:50;;;;;;;;;;;;;;;;;;4926651;29;5172;-63
2024/01/29 02:21:15;;;;;;;;;;;;;;;;;;4929266;29;3417;-64
2024/01/29 02:23:44;;;;;;;;;;;;;;;;;;4928982;29;5049;-64
2024/01/29 02:26:09;;;;;;;;;;;;;;;;;;4913371;29;5036;-62
2024/01/29 02:28:35;;;;;;;;;;;;;;;;;;4930544;29;4483;-63
2024/01/29 02:31:00;;;;;;;;;;;;;;;;;;4927001;29;4665;-63
2024/01/29 02:33:25;;;;;;;;;;;;;;;;;;4923158;29;3488;-65
2024/01/29 02:35:50;;;;;;;;;;;;;;;;;;4904854;29;4798;-63
2024/01/29 02:38:16;;;;;;;;;;;;;;;;;;4906688;29;5131;-64
2024/01/29 02:40:41;;;;;;;;;;;;;;;;;;4924628;29;4988;-64
2024/01/29 02:43:06;;;;;;;;;;;;;;;;;;4926617;29;5234;-64
2024/01/29 02:45:31;;;;;;;;;;;;;;;;;;4927236;29;3444;-63
2024/01/29 02:47:57;;;;;;;;;;;;;;;;;;4925053;29;4641;-63
2024/01/29 02:50:26;;;;;;;;;;;;;;;;;;4924443;29;4690;-64
2024/01/29 02:52:51;;;;;;;;;;;;;;;;;;4925471;29;5004;-64
2024/01/29 02:55:16;;;;;;;;;;;;;;;;;;4924762;28;5008;-63
2024/01/29 02:57:42;;;;;;;;;;;;;;;;;;4929167;29;5394;-64
2024/01/29 03:00:07;;;;;;;;;;;;;;;;;;4926403;29;3853;-64
2024/01/29 03:02:32;;;;;;;;;;;;;;;;;;4928991;29;4857;-63
2024/01/29 03:04:58;;;;;;;;;;;;;;;;;;4902181;29;5153;-64
2024/01/29 03:07:23;;;;;;;;;;;;;;;;;;4912200;29;5124;-63
2024/01/29 03:09:48;;;;;;;;;;;;;;;;;;4924222;29;4760;-64
2024/01/29 03:12:14;;;;;;;;;;;;;;;;;;4930936;29;1077;-63
2024/01/29 03:14:39;;;;;;;;;;;;;;;;;;4929129;29;4550;-63
2024/01/29 03:17:04;;;;;;;;;;;;;;;;;;4924203;29;5067;-64
2024/01/29 03:19:30;;;;;;;;;;;;;;;;;;4923194;29;5095;-63
2024/01/29 03:21:55;;;;;;;;;;;;;;;;;;4924325;29;4520;-63
2024/01/29 03:24:21;;;;;;;;;;;;;;;;;;4925614;29;3710;-63
2024/01/29 03:26:46;;;;;;;;;;;;;;;;;;4932066;29;5216;-62
2024/01/29 03:29:11;;;;;;;;;;;;;;;;;;4930187;29;4937;-63
2024/01/29 03:31:37;;;;;;;;;;;;;;;;;;4930315;29;4554;-63
2024/01/29 03:34:02;;;;;;;;;;;;;;;;;;4909666;29;4540;-63
2024/01/29 03:36:27;;;;;;;;;;;;;;;;;;4932946;29;3474;-63
2024/01/29 03:38:52;;;;;;;;;;;;;;;;;;4927790;29;4636;-63
2024/01/29 03:41:18;;;;;;;;;;;;;;;;;;4933620;29;4485;-63
2024/01/29 03:43:43;;;;;;;;;;;;;;;;;;4931373;29;5454;-63
2024/01/29 03:46:08;;;;;;;;;;;;;;;;;;4929014;29;5581;-63
2024/01/29 03:48:34;;;;;;;;;;;;;;;;;;4933810;29;1135;-63
2024/01/29 03:50:59;;;;;;;;;;;;;;;;;;4928953;29;4451;-64
2024/01/29 03:53:24;;;;;;;;;;;;;;;;;;4929343;29;4787;-63
2024/01/29 03:55:52;;;;;;;;;;;;;;;;;;4928740;28;5150;-64
2024/01/29 03:58:17;;;;;;;;;;;;;;;;;;4928884;29;5184;-63
2024/01/29 04:00:43;;;;;;;;;;;;;;;;;;4929322;29;5078;-63
2024/01/29 04:03:08;;;;;;;;;;;;;;;;;;4932142;29;3497;-63
2024/01/29 04:05:33;;;;;;;;;;;;;;;;;;4929838;29;4708;-63
2024/01/29 04:07:59;;;;;;;;;;;;;;;;;;4930222;29;4497;-63
2024/01/29 04:10:24;;;;;;;;;;;;;;;;;;4932063;29;4658;-63
2024/01/29 04:12:49;;;;;;;;;;;;;;;;;;4930871;29;4938;-63
2024/01/29 04:15:15;;;;;;;;;;;;;;;;;;4932512;29;3405;-63
2024/01/29 04:17:40;;;;;;;;;;;;;;;;;;4930060;29;4515;-63
2024/01/29 04:20:06;;;;;;;;;;;;;;;;;;4926630;29;4746;-63
2024/01/29 04:22:34;;;;;;;;;;;;;;;;;;4932012;29;5085;-63
2024/01/29 04:25:00;;;;;;;;;;;;;;;;;;4930911;29;4546;-63
2024/01/29 04:27:25;;;;;;;;;;;;;;;;;;4931737;29;3386;-63
2024/01/29 04:29:50;;;;;;;;;;;;;;;;;;4924966;29;5098;-64
2024/01/29 04:32:16;;;;;;;;;;;;;;;;;;4926392;29;5299;-63
2024/01/29 04:34:41;;;;;;;;;;;;;;;;;;4906326;29;4739;-64
2024/01/29 04:37:06;;;;;;;;;;;;;;;;;;4923278;29;5064;-63
2024/01/29 04:39:32;;;;;;;;;;;;;;;;;;4930604;29;3390;-63
2024/01/29 04:41:57;;;;;;;;;;;;;;;;;;4929692;29;5135;-63
2024/01/29 04:44:22;;;;;;;;;;;;;;;;;;4928563;29;4659;-63
2024/01/29 04:46:48;;;;;;;;;;;;;;;;;;4923513;29;5119;-63
2024/01/29 04:49:13;;;;;;;;;;;;;;;;;;4925156;29;5085;-63
2024/01/29 04:51:39;;;;;;;;;;;;;;;;;;4925819;29;5282;-63
2024/01/29 04:54:04;;;;;;;;;;;;;;;;;;4929291;29;3734;-63
2024/01/29 04:56:30;;;;;;;;;;;;;;;;;;4927826;28;4711;-63
2024/01/29 04:58:55;;;;;;;;;;;;;;;;;;4922801;29;4778;-64
2024/01/29 05:01:20;;;;;;;;;;;;;;;;;;4923417;29;5104;-64
2024/01/29 05:03:47;;;;;;;;;;;;;;;;;;4923003;29;4535;-63
2024/01/29 05:06:12;;;;;;;;;;;;;;;;;;4907269;29;3215;-63
2024/01/29 05:08:38;;;;;;;;;;;;;;;;;;4929611;29;4969;-63
2024/01/29 05:11:03;;;;;;;;;;;;;;;;;;4930987;29;4532;-63
2024/01/29 05:13:29;;;;;;;;;;;;;;;;;;4926684;29;4688;-63
2024/01/29 05:15:54;;;;;;;;;;;;;;;;;;4929580;29;5277;-63
2024/01/29 05:18:20;;;;;;;;;;;;;;;;;;4930074;29;3284;-62
2024/01/29 05:20:45;;;;;;;;;;;;;;;;;;4923349;29;5051;-65
2024/01/29 05:23:11;;;;;;;;;;;;;;;;;;4907435;29;5074;-64
2024/01/29 05:25:36;;;;;;;;;;;;;;;;;;4930587;29;5050;-64
2024/01/29 05:28:02;;;;;;;;;;;;;;;;;;4925287;29;4588;-65
2024/01/29 05:30:27;;;;;;;;;;;;;;;;;;4928478;29;3252;-65
2024/01/29 05:32:52;;;;;;;;;;;;;;;;;;4929574;29;4670;-65
2024/01/29 05:35:18;;;;;;;;;;;;;;;;;;4921703;29;4757;-64
2024/01/29 05:37:43;;;;;;;;;;;;;;;;;;4923874;29;4537;-64
2024/01/29 05:40:11;;;;;;;;;;;;;;;;;;4923569;29;5098;-64
2024/01/29 05:42:36;;;;;;;;;;;;;;;;;;4930696;29;3369;-64
2024/01/29 05:45:02;;;;;;;;;;;;;;;;;;4931087;29;4508;-63
2024/01/29 05:47:27;;;;;;;;;;;;;;;;;;4930431;29;4467;-62
2024/01/29 05:49:52;;;;;;;;;;;;;;;;;;4930959;29;5213;-61
2024/01/29 05:52:18;;;;;;;;;;;;;;;;;;4931321;29;5102;-55
2024/01/29 05:54:44;;;;;;;;;;;;;;;;;;4931425;28;5159;-58
2024/01/29 05:57:09;;;;;;;;;;;;;;;;;;4930386;29;3349;-61
2024/01/29 05:59:34;;;;;;;;;;;;;;;;;;4910512;29;5130;-53
2024/01/29 06:02:00;;;;;;;;;;;;;;;;;;4924340;29;4651;-54
2024/01/29 06:04:25;;;;;;;;;;;;;;;;;;4927474;29;5264;-60
2024/01/29 06:06:50;;;;;;;;;;;;;;;;;;4918313;29;5088;-55
2024/01/29 06:09:16;;;;;;;;;;;;;;;;;;4924799;29;3437;-54
2024/01/29 06:11:41;;;;;;;;;;;;;;;;;;4929189;29;4960;-54
2024/01/29 06:14:06;;;;;;;;;;;;;;;;;;4927533;29;4767;-51
2024/01/29 06:16:32;;;;;;;;;;;;;;;;;;4927420;29;4500;-52
2024/01/29 06:18:57;;;;;;;;;;;;;;;;;;4928929;29;5081;-58
2024/01/29 06:21:23;;;;;;;;;;;;;;;;;;4929904;29;2311;-56
2024/01/29 06:23:48;;;;;;;;;;;;;;;;;;4926685;29;5022;-59
2024/01/29 06:26:14;;;;;;;;;;;;;;;;;;4926590;29;5123;-56
2024/01/29 06:28:42;;;;;;;;;;;;;;;;;;4930427;29;5027;-60
2024/01/29 06:31:07;;;;;;;;;;;;;;;;;;4904777;29;5046;-58
2024/01/29 06:33:35;;;;;;;;;;;;;;;;;;4927227;29;3457;-58
2024/01/29 06:36:01;;;;;;;;;;;;;;;;;;4925765;29;4843;-53
2024/01/29 06:38:26;;;;;;;;;;;;;;;;;;4912892;29;5088;-59
2024/01/29 06:40:52;;;;;;;;;;;;;;;;;;4927773;29;4550;-52
2024/01/29 06:43:17;;;;;;;;;;;;;;;;;;4931509;29;5521;-51
2024/01/29 06:45:42;;;;;;;;;;;;;;;;;;4926953;29;4941;-54
2024/01/29 06:48:08;;;;;;;;;;;;;;;;;;4929455;29;3239;-55
2024/01/29 06:50:33;;;;;;;;;;;;;;;;;;4930579;29;5579;-53
2024/01/29 06:52:59;;;;;;;;;;;;;;;;;;4929705;29;5013;-53
2024/01/29 06:55:24;;;;;;;;;;;;;;;;;;4928393;28;4984;-52
2024/01/29 06:57:49;;;;;;;;;;;;;;;;;;4930247;29;4650;-65
2024/01/29 07:00:15;;;;;;;;;;;;;;;;;;4897006;29;2287;-55
2024/01/29 07:02:40;;;;;;;;;;;;;;;;;;4933538;29;4645;-57
2024/01/29 07:05:06;;;;;;;;;;;;;;;;;;4933392;29;4821;-53
2024/01/29 07:07:31;;;;;;;;;;;;;;;;;;4931074;29;5165;-53
2024/01/29 07:09:56;;;;;;;;;;;;;;;;;;4929839;29;5034;-49
2024/01/29 07:12:22;;;;;;;;;;;;;;;;;;4933559;29;1160;-56
2024/01/29 07:14:47;;;;;;;;;;;;;;;;;;4933196;29;5030;-56
2024/01/29 07:17:12;;;;;;;;;;;;;;;;;;4912861;29;4534;-54
2024/01/29 07:19:37;;;;;;;;;;;;;;;;;;4933521;29;5043;-58
2024/01/29 07:22:04;;;;;;;;;;;;;;;;;;4933456;29;4908;-55
2024/01/29 07:24:32;;;;;;;;;;;;;;;;;;4928901;29;2136;-52
2024/01/29 07:27:01;;;;;;;;;;;;;;;;;;4916343;29;5029;-55
2024/01/29 07:29:31;;;;;;;;;;;;;;;;;;4932058;29;5213;-55
2024/01/29 07:31:57;;;;;;;;;;;;;;;;;;4893901;29;5201;-60
2024/01/29 07:34:22;;;;;;;;;;;;;;;;;;4932368;29;5070;-54
2024/01/29 07:36:47;;;;;;;;;;;;;;;;;;4933545;29;5057;-59
2024/01/29 07:39:13;;;;;;;;;;;;;;;;;;4932604;29;3447;-58
2024/01/29 07:41:41;;;;;;;;;;;;;;;;;;4933428;29;4815;-57
2024/01/29 07:44:06;;;;;;;;;;;;;;;;;;4912689;29;4739;-56
2024/01/29 07:46:31;;;;;;;;;;;;;;;;;;4932679;29;4912;-57
2024/01/29 07:48:59;;;;;;;;;;;;;;;;;;4933463;29;4527;-55
2024/01/29 07:51:25;;;;;;;;;;;;;;;;;;4930660;29;3216;-58
2024/01/29 07:53:50;;;;;;;;;;;;;;;;;;4929202;29;5089;-63
2024/01/29 07:56:15;;;;;;;;;;;;;;;;;;4915845;29;4996;-54
2024/01/29 07:58:41;;;;;;;;;;;;;;;;;;4932964;29;4517;-58
2024/01/29 08:01:06;;;;;;;;;;;;;;;;;;4931017;29;5100;-53
2024/01/29 08:03:31;;;;;;;;;;;;;;;;;;4916018;29;1108;-60
2024/01/29 08:05:56;;;;;;;;;;;;;;;;;;4931859;29;5098;-56
2024/01/29 08:08:22;;;;;;;;;;;;;;;;;;4927939;29;4924;-54
2024/01/29 08:10:48;;;;;;;;;;;;;;;;;;4932798;29;5130;-52
2024/01/29 08:13:13;;;;;;;;;;;;;;;;;;4932319;29;5654;-54
2024/01/29 08:15:38;;;;;;;;;;;;;;;;;;4932426;29;5030;-63
2024/01/29 08:18:04;;;;;;;;;;;;;;;;;;4926997;29;3648;-57
2024/01/29 08:20:29;;;;;;;;;;;;;;;;;;4932467;29;5269;-52
2024/01/29 08:22:54;;;;;;;;;;;;;;;;;;4932446;29;4507;-52
2024/01/29 08:25:20;;;;;;;;;;;;;;;;;;4920907;29;5158;-57
2024/01/29 08:27:46;;;;;;;;;;;;;;;;;;4915607;29;4645;-54
2024/01/29 08:30:11;;;;;;;;;;;;;;;;;;4931392;29;3360;-56
2024/01/29 08:32:36;;;;;;;;;;;;;;;;;;4931090;29;4655;-57
2024/01/29 08:35:02;;;;;;;;;;;;;;;;;;4932454;29;5149;-56
2024/01/29 08:37:27;;;;;;;;;;;;;;;;;;4931534;29;5122;-59
2024/01/29 08:39:53;;;;;;;;;;;;;;;;;;4928944;29;5042;-56
2024/01/29 08:42:18;;;;;;;;;;;;;;;;;;4934201;29;1359;-54
2024/01/29 08:44:44;;;;;;;;;;;;;;;;;;4932123;29;5088;-56
2024/01/29 08:47:10;;;;;;;;;;;;;;;;;;4931527;29;5107;-53
2024/01/29 08:49:35;;;;;;;;;;;;;;;;;;4931326;29;5256;-51
2024/01/29 08:52:01;;;;;;;;;;;;;;;;;;4931217;29;5222;-55
2024/01/29 08:54:26;;;;;;;;;;;;;;;;;;4931416;28;3365;-57
2024/01/29 08:56:51;;;;;;;;;;;;;;;;;;4929509;29;4827;-57
2024/01/29 08:59:19;;;;;;;;;;;;;;;;;;4932497;29;4885;-52
2024/01/29 09:01:44;;;;;;;;;;;;;;;;;;4932033;29;6857;-56
2024/01/29 09:04:10;;;;;;;;;;;;;;;;;;4930409;29;4718;-52
2024/01/29 09:06:35;;;;;;;;;;;;;;;;;;4932697;29;1357;-51
2024/01/29 09:09:00;;;;;;;;;;;;;;;;;;4927539;29;4589;-52
2024/01/29 09:11:26;;;;;;;;;;;;;;;;;;4914470;29;4584;-57
2024/01/29 09:13:51;;;;;;;;;;;;;;;;;;4931703;29;5012;-57
2024/01/29 09:16:16;;;;;;;;;;;;;;;;;;4928096;29;5163;-61
2024/01/29 09:18:42;;;;;;;;;;;;;;;;;;4932213;29;4524;-55
2024/01/29 09:21:08;;;;;;;;;;;;;;;;;;4930717;29;1116;-57
2024/01/29 09:23:33;;;;;;;;;;;;;;;;;;4930263;29;5038;-56
2024/01/29 09:25:58;;;;;;;;;;;;;;;;;;4930582;29;4939;-59
2024/01/29 09:28:24;;;;;;;;;;;;;;;;;;4931424;29;5103;-59
2024/01/29 09:30:49;;;;;;;;;;;;;;;;;;4930836;29;5055;-57
2024/01/29 09:33:16;;;;;;;;;;;;;;;;;;4910896;29;1118;-56
2024/01/29 09:35:42;;;;;;;;;;;;;;;;;;4930062;29;5051;-58
2024/01/29 09:38:07;;;;;;;;;;;;;;;;;;4929727;29;5006;-55
2024/01/29 09:40:32;;;;;;;;;;;;;;;;;;4931211;29;5042;-57
2024/01/29 09:42:58;;;;;;;;;;;;;;;;;;4932169;29;5222;-58
2024/01/29 09:45:23;;;;;;;;;;;;;;;;;;4931305;29;1967;-55
2024/01/29 09:47:49;;;;;;;;;;;;;;;;;;4931192;29;5157;-56
2024/01/29 09:50:14;;;;;;;;;;;;;;;;;;4922518;29;5113;-56
2024/01/29 09:52:40;;;;;;;;;;;;;;;;;;4929809;29;4536;-52
2024/01/29 09:55:05;;;;;;;;;;;;;;;;;;4913398;29;5018;-56
2024/01/29 09:57:31;;;;;;;;;;;;;;;;;;4931073;29;1083;-54
2024/01/29 09:59:56;;;;;;;;;;;;;;;;;;4930692;29;4585;-55
2024/01/29 10:02:21;;;;;;;;;;;;;;;;;;4913630;29;4649;-52
2024/01/29 10:04:47;;;;;;;;;;;;;;;;;;4912130;29;4590;-57
2024/01/29 10:07:12;;;;;;;;;;;;;;;;;;4928402;29;5174;-55
2024/01/29 10:09:37;;;;;;;;;;;;;;;;;;4913425;29;4479;-58
2024/01/29 10:12:03;;;;;;;;;;;;;;;;;;4925499;29;1077;-55
2024/01/29 10:14:28;;;;;;;;;;;;;;;;;;4930111;29;4904;-56
2024/01/29 10:16:54;;;;;;;;;;;;;;;;;;4924300;29;4894;-55
2024/01/29 10:19:19;;;;;;;;;;;;;;;;;;4930701;29;4488;-52
2024/01/29 10:21:44;;;;;;;;;;;;;;;;;;4929143;29;5129;-55
2024/01/29 10:24:11;;;;;;;;;;;;;;;;;;4931040;29;1918;-59
2024/01/29 10:26:36;;;;;;;;;;;;;;;;;;4930243;29;5092;-52
2024/01/29 10:29:09;;;;;;;;;;;;;;;;;;4930225;29;4667;-55
2024/01/29 10:31:34;;;;;;;;;;;;;;;;;;4910824;29;5342;-52
2024/01/29 10:33:59;;;;;;;;;;;;;;;;;;4929618;29;4648;-53
2024/01/29 10:36:25;;;;;;;;;;;;;;;;;;4928472;29;3365;-55
2024/01/29 10:38:51;;;;;;;;;;;;;;;;;;4929372;29;4488;-60
2024/01/29 10:41:17;;;;;;;;;;;;;;;;;;4931379;29;5131;-50
2024/01/29 10:43:46;;;;;;;;;;;;;;;;;;4929877;29;5343;-51
2024/01/29 10:46:11;;;;;;;;;;;;;;;;;;4926906;29;5085;-51
2024/01/29 10:48:36;;;;;;;;;;;;;;;;;;4930610;29;1128;-53
2024/01/29 10:51:02;;;;;;;;;;;;;;;;;;4911781;29;4423;-55
2024/01/29 10:53:27;;;;;;;;;;;;;;;;;;4930387;29;5123;-54
2024/01/29 10:55:52;;;;;;;;;;;;;;;;;;4912483;28;4533;-51
2024/01/29 10:58:17;;;;;;;;;;;;;;;;;;4909934;29;5215;-56
2024/01/29 11:00:43;;;;;;;;;;;;;;;;;;4930032;29;4636;-55
2024/01/29 11:03:09;;;;;;;;;;;;;;;;;;4930197;29;1238;-52
2024/01/29 11:05:35;;;;;;;;;;;;;;;;;;4926799;29;4481;-55
2024/01/29 11:08:00;;;;;;;;;;;;;;;;;;4912272;29;4532;-54
2024/01/29 11:10:26;;;;;;;;;;;;;;;;;;4913032;29;5104;-55
2024/01/29 11:12:52;;;;;;;;;;;;;;;;;;4929183;29;4911;-58
2024/01/29 11:15:17;;;;;;;;;;;;;;;;;;4910937;29;3543;-51
2024/01/29 11:17:42;;;;;;;;;;;;;;;;;;4910783;29;4494;-61
2024/01/29 11:20:12;;;;;;;;;;;;;;;;;;4911725;29;4989;-53
2024/01/29 11:22:37;;;;;;;;;;;;;;;;;;4892338;29;4792;-52
2024/01/29 11:25:14;;;;;;;;;;;;;;;;;;4912273;29;4782;-57
2024/01/29 11:27:40;;;;;;;;;;;;;;;;;;4912923;29;5173;-53
2024/01/29 11:30:21;;;;;;;;;;;;;;;;;;4928645;29;2314;-54
2024/01/29 11:32:47;;;;;;;;;;;;;;;;;;4928498;29;4637;-56
2024/01/29 11:35:13;;;;;;;;;;;;;;;;;;4929283;29;4716;-55
2024/01/29 11:37:39;;;;;;;;;;;;;;;;;;4925150;29;5247;-52
2024/01/29 11:40:05;;;;;;;;;;;;;;;;;;4933517;29;5118;-53
2024/01/29 11:42:30;;;;;;;;;;;;;;;;;;4931509;29;3409;-53
2024/01/29 11:44:56;;;;;;;;;;;;;;;;;;4924022;29;4997;-51
2024/01/29 11:47:22;;;;;;;;;;;;;;;;;;4932913;29;4725;-55
2024/01/29 11:49:48;;;;;;;;;;;;;;;;;;4914893;29;5373;-59
2024/01/29 11:52:14;;;;;;;;;;;;;;;;;;4931853;29;5064;-56
2024/01/29 11:54:39;;;;;;;;;;;;;;;;;;4914737;28;4648;-55
2024/01/29 11:57:05;;;;;;;;;;;;;;;;;;4916305;29;1128;-54
2024/01/29 11:59:30;;;;;;;;;;;;;;;;;;4914573;29;4551;-54
2024/01/29 12:01:55;;;;;;;;;;;;;;;;;;4932840;29;4783;-51
2024/01/29 12:04:21;;;;;;;;;;;;;;;;;;4913922;29;4628;-57
2024/01/29 12:06:50;;;;;;;;;;;;;;;;;;4932782;29;5066;-52
2024/01/29 12:09:16;;;;;;;;;;;;;;;;;;4918450;29;1725;-51
2024/01/29 12:11:41;;;;;;;;;;;;;;;;;;4932943;29;4635;-55
2024/01/29 12:14:07;;;;;;;;;;;;;;;;;;4931601;29;5071;-54
2024/01/29 12:16:33;;;;;;;;;;;;;;;;;;4931197;29;4525;-59
2024/01/29 12:18:59;;;;;;;;;;;;;;;;;;4932828;29;5007;-56
2024/01/29 12:21:24;;;;;;;;;;;;;;;;;;4931939;29;3500;-60
2024/01/29 12:23:50;;;;;;;;;;;;;;;;;;4928167;29;4555;-52
2024/01/29 12:26:23;;;;;;;;;;;;;;;;;;4932536;29;4914;-52
2024/01/29 12:28:49;;;;;;;;;;;;;;;;;;4914765;29;5086;-56
2024/01/29 12:31:15;;;;;;;;;;;;;;;;;;4931608;29;4653;-53
2024/01/29 12:33:41;;;;;;;;;;;;;;;;;;4927158;29;4600;-51
2024/01/29 12:36:09;;;;;;;;;;;;;;;;;;4915192;29;1311;-52
2024/01/29 12:38:34;;;;;;;;;;;;;;;;;;4931472;29;5113;-54
2024/01/29 12:41:00;;;;;;;;;;;;;;;;;;4932048;29;4593;-52
2024/01/29 12:43:27;;;;;;;;;;;;;;;;;;4914255;29;4923;-57
2024/01/29 12:46:01;;;;;;;;;;;;;;;;;;4909715;29;5320;-50
2024/01/29 12:48:27;;;;;;;;;;;;;;;;;;4928163;29;3551;-54
2024/01/29 12:50:52;;;;;;;;;;;;;;;;;;4930230;29;5259;-53
2024/01/29 12:53:17;;;;;;;;;;;;;;;;;;4932339;29;4588;-54
2024/01/29 12:55:43;;;;;;;;;;;;;;;;;;4931942;28;5058;-55
2024/01/29 12:58:08;;;;;;;;;;;;;;;;;;4930820;29;5114;-61
2024/01/29 13:00:34;;;;;;;;;;;;;;;;;;4925090;29;1313;-54
2024/01/29 13:02:59;;;;;;;;;;;;;;;;;;4928758;29;4484;-54
2024/01/29 13:05:25;;;;;;;;;;;;;;;;;;4907614;29;5388;-52
2024/01/29 13:07:50;;;;;;;;;;;;;;;;;;4931566;29;5339;-52
2024/01/29 13:10:16;;;;;;;;;;;;;;;;;;4931273;29;5128;-53
2024/01/29 13:12:41;;;;;;;;;;;;;;;;;;4930709;29;5009;-54
2024/01/29 13:15:07;;;;;;;;;;;;;;;;;;4931541;29;1116;-53
2024/01/29 13:17:32;;;;;;;;;;;;;;;;;;4929510;29;5177;-53
2024/01/29 13:19:57;;;;;;;;;;;;;;;;;;4930200;29;4546;-52
2024/01/29 13:22:23;;;;;;;;;;;;;;;;;;4931281;29;4673;-56
2024/01/29 13:24:48;;;;;;;;;;;;;;;;;;4931376;29;4537;-58
2024/01/29 13:27:15;;;;;;;;;;;;;;;;;;4930435;29;2224;-54
2024/01/29 13:29:40;;;;;;;;;;;;;;;;;;4898006;29;5007;-55
2024/01/29 13:32:05;;;;;;;;;;;;;;;;;;4931124;29;4596;-57
2024/01/29 13:34:31;;;;;;;;;;;;;;;;;;4927473;29;4593;-51
2024/01/29 13:36:56;;;;;;;;;;;;;;;;;;4930235;29;5047;-52
2024/01/29 13:39:22;;;;;;;;;;;;;;;;;;4931146;29;1700;-54
2024/01/29 13:41:47;;;;;;;;;;;;;;;;;;4932319;29;5140;-55
2024/01/29 13:44:12;;;;;;;;;;;;;;;;;;4924273;29;5130;-52
2024/01/29 13:46:38;;;;;;;;;;;;;;;;;;4910219;29;4539;-58
2024/01/29 13:49:04;;;;;;;;;;;;;;;;;;4928725;29;5351;-51
2024/01/29 13:51:29;;;;;;;;;;;;;;;;;;4927129;29;3310;-51
2024/01/29 13:53:54;;;;;;;;;;;;;;;;;;4930601;29;4500;-56
2024/01/29 13:56:20;;;;;;;;;;;;;;;;;;4929791;28;5253;-55
2024/01/29 13:58:45;;;;;;;;;;;;;;;;;;4929415;29;4902;-59
2024/01/29 14:01:11;;;;;;;;;;;;;;;;;;4929425;29;4659;-53
2024/01/29 14:03:36;;;;;;;;;;;;;;;;;;4929288;29;2252;-55
2024/01/29 14:06:02;;;;;;;;;;;;;;;;;;4930574;29;5174;-54
2024/01/29 14:08:28;;;;;;;;;;;;;;;;;;4912635;29;4561;-56
2024/01/29 14:10:53;;;;;;;;;;;;;;;;;;4927514;29;4530;-58
2024/01/29 14:13:18;;;;;;;;;;;;;;;;;;4930841;29;5021;-55
2024/01/29 14:15:44;;;;;;;;;;;;;;;;;;4913515;29;5133;-55
2024/01/29 14:18:10;;;;;;;;;;;;;;;;;;4906823;29;3429;-61
2024/01/29 14:20:35;;;;;;;;;;;;;;;;;;4923950;29;5145;-60
2024/01/29 14:23:00;;;;;;;;;;;;;;;;;;4928912;29;4562;-52
2024/01/29 14:25:26;;;;;;;;;;;;;;;;;;4930149;29;5148;-56
2024/01/29 14:27:52;;;;;;;;;;;;;;;;;;4913404;29;4935;-60
2024/01/29 14:30:18;;;;;;;;;;;;;;;;;;4930645;29;1128;-50
2024/01/29 14:32:43;;;;;;;;;;;;;;;;;;4927211;29;5178;-56
2024/01/29 14:35:10;;;;;;;;;;;;;;;;;;4923130;29;5391;-51
2024/01/29 14:37:36;;;;;;;;;;;;;;;;;;4928691;29;5024;-56
2024/01/29 14:40:01;;;;;;;;;;;;;;;;;;4929937;29;5125;-59
2024/01/29 14:42:27;;;;;;;;;;;;;;;;;;4931575;29;1835;-53
2024/01/29 14:44:55;;;;;;;;;;;;;;;;;;4928979;29;5107;-51
2024/01/29 14:47:21;;;;;;;;;;;;;;;;;;4927377;29;5150;-56
2024/01/29 14:49:46;;;;;;;;;;;;;;;;;;4926678;29;5250;-58
2024/01/29 14:52:12;;;;;;;;;;;;;;;;;;4928600;29;5294;-52
2024/01/29 14:54:37;;;;;;;;;;;;;;;;;;4926359;28;4802;-54
2024/01/29 14:57:02;;;;;;;;;;;;;;;;;;4930564;29;1017;-56
2024/01/29 14:59:28;;;;;;;;;;;;;;;;;;4925767;29;5207;-54
2024/01/29 15:01:53;;;;;;;;;;;;;;;;;;4928562;29;4659;-51
2024/01/29 15:04:18;;;;;;;;;;;;;;;;;;4930028;29;4543;-51
2024/01/29 15:06:44;;;;;;;;;;;;;;;;;;4929337;29;5280;-51
2024/01/29 15:09:10;;;;;;;;;;;;;;;;;;4928397;29;3071;-55
2024/01/29 15:11:35;;;;;;;;;;;;;;;;;;4929646;29;5056;-52
2024/01/29 15:14:00;;;;;;;;;;;;;;;;;;4929803;29;5179;-49
2024/01/29 15:16:26;;;;;;;;;;;;;;;;;;4926079;29;4541;-58
2024/01/29 15:18:51;;;;;;;;;;;;;;;;;;4925804;29;5149;-65
2024/01/29 15:21:16;;;;;;;;;;;;;;;;;;4925744;29;3370;-55
2024/01/29 15:23:41;;;;;;;;;;;;;;;;;;4931134;29;4515;-53
2024/01/29 15:26:07;;;;;;;;;;;;;;;;;;4932042;29;4786;-54
2024/01/29 15:28:32;;;;;;;;;;;;;;;;;;4932616;29;5120;-50
2024/01/29 15:30:57;;;;;;;;;;;;;;;;;;4925436;29;5242;-57
2024/01/29 15:33:23;;;;;;;;;;;;;;;;;;4932601;29;3440;-59
2024/01/29 15:35:48;;;;;;;;;;;;;;;;;;4933413;29;4739;-56
2024/01/29 15:38:18;;;;;;;;;;;;;;;;;;4932763;29;4977;-53
2024/01/29 15:40:45;;;;;;;;;;;;;;;;;;4914140;29;5228;-56
2024/01/29 15:43:16;;;;;;;;;;;;;;;;;;4932184;29;4529;-59
2024/01/29 15:45:41;;;;;;;;;;;;;;;;;;4933368;29;4943;-59
2024/01/29 15:48:06;;;;;;;;;;;;;;;;;;4933417;29;1253;-56
2024/01/29 15:50:32;;;;;;;;;;;;;;;;;;4931338;29;5256;-55
2024/01/29 15:52:57;;;;;;;;;;;;;;;;;;4931904;29;4927;-54
2024/01/29 15:55:22;;;;;;;;;;;;;;;;;;4932509;28;4625;-52
2024/01/29 15:57:48;;;;;;;;;;;;;;;;;;4932887;29;5154;-52
2024/01/29 16:00:15;;;;;;;;;;;;;;;;;;4932149;29;3417;-52
2024/01/29 16:02:40;;;;;;;;;;;;;;;;;;4931921;29;4701;-54
2024/01/29 16:05:06;;;;;;;;;;;;;;;;;;4931794;29;4959;-53
2024/01/29 16:07:34;;;;;;;;;;;;;;;;;;4931407;29;5160;-51
2024/01/29 16:09:59;;;;;;;;;;;;;;;;;;4930252;29;5114;-51
2024/01/29 16:12:26;;;;;;;;;;;;;;;;;;4931263;29;3492;-52
2024/01/29 16:14:51;;;;;;;;;;;;;;;;;;4931612;29;5026;-52
2024/01/29 16:17:16;;;;;;;;;;;;;;;;;;4913640;29;4781;-50
2024/01/29 16:19:41;;;;;;;;;;;;;;;;;;4933007;29;5042;-55
2024/01/29 16:22:07;;;;;;;;;;;;;;;;;;4932452;29;4928;-58
2024/01/29 16:24:33;;;;;;;;;;;;;;;;;;4930756;29;3417;-52
2024/01/29 16:26:58;;;;;;;;;;;;;;;;;;4932157;29;4963;-55
2024/01/29 16:29:24;;;;;;;;;;;;;;;;;;4928646;29;5143;-49
2024/01/29 16:31:53;;;;;;;;;;;;;;;;;;4932244;29;5103;-50
2024/01/29 16:34:19;;;;;;;;;;;;;;;;;;4913657;29;4979;-58
2024/01/29 16:36:45;;;;;;;;;;;;;;;;;;4930339;29;4765;-54
2024/01/29 16:39:10;;;;;;;;;;;;;;;;;;4932713;29;1709;-50
2024/01/29 16:41:36;;;;;;;;;;;;;;;;;;4926649;29;4483;-52
2024/01/29 16:44:01;;;;;;;;;;;;;;;;;;4931038;29;4658;-53
2024/01/29 16:46:28;;;;;;;;;;;;;;;;;;4929956;29;5017;-54
2024/01/29 16:48:54;;;;;;;;;;;;;;;;;;4931883;29;4605;-56
2024/01/29 16:51:22;;;;;;;;;;;;;;;;;;4931421;29;3223;-52